sensor_id;sensor_type;location;lat;lon;timestamp;P1;durP1;ratioP1;P2;durP2;ratioP2
20381;SDS011;10350;51.280;12.400;2023-04-24T00:01:47;4.68;;;4.47;;
20381;SDS011;10350;51.280;12.400;2023-04-24T00:04:14;4.60;;;4.35;;
20381;SDS011;10350;51.280;12.400;2023-04-24T00:06:41;3.95;;;3.70;;
20381;SDS011;10350;51.280;12.400;2023-04-24T00:09:08;4.32;;;4.13;;
20381;SDS011;10350;51.280;12.400;2023-04-24T00:11:35;4.95;;;4.75;;
20381;SDS011;10350;51.280;12.400;2023-04-24T00:14:01;4.28;;;4.07;;
20381;SDS011;10350;51.280;12.400;2023-04-24T00:16:27;3.80;;;3.60;;
20381;SDS011;10350;51.280;12.400;2023-04-24T00:18:53;4.25;;;4.05;;
20381;SDS011;10350;51.280;12.400;2023-04-24T00:21:19;4.45;;;4.25;;
20381;SDS011;10350;51.280;12.400;2023-04-24T00:23:46;4.55;;;4.35;;
20381;SDS011;10350;51.280;12.400;2023-04-24T00:26:12;4.20;;;4.00;;
20381;SDS011;10350;51.280;12.400;2023-04-24T00:28:38;4.35;;;4.05;;
20381;SDS011;10350;51.280;12.400;2023-04-24T00:31:04;4.03;;;3.83;;
20381;SDS011;10350;51.280;12.400;2023-04-24T00:33:30;4.50;;;4.30;;
20381;SDS011;10350;51.280;12.400;2023-04-24T00:35:56;4.65;;;4.45;;
20381;SDS011;10350;51.280;12.400;2023-04-24T00:38:22;4.60;;;4.32;;
20381;SDS011;10350;51.280;12.400;2023-04-24T00:40:48;4.22;;;4.03;;
20381;SDS011;10350;51.280;12.400;2023-04-24T00:43:17;4.50;;;4.30;;
20381;SDS011;10350;51.280;12.400;2023-04-24T00:45:43;4.45;;;4.25;;
20381;SDS011;10350;51.280;12.400;2023-04-24T00:48:09;4.45;;;4.25;;
20381;SDS011;10350;51.280;12.400;2023-04-24T00:50:38;5.10;;;4.80;;
20381;SDS011;10350;51.280;12.400;2023-04-24T00:53:04;4.78;;;4.57;;
20381;SDS011;10350;51.280;12.400;2023-04-24T00:55:31;5.03;;;4.82;;
20381;SDS011;10350;51.280;12.400;2023-04-24T00:57:57;5.07;;;4.78;;
20381;SDS011;10350;51.280;12.400;2023-04-24T01:00:24;4.43;;;4.22;;
20381;SDS011;10350;51.280;12.400;2023-04-24T01:02:50;4.45;;;4.25;;
20381;SDS011;10350;51.280;12.400;2023-04-24T01:05:18;5.07;;;4.88;;
20381;SDS011;10350;51.280;12.400;2023-04-24T01:07:45;4.78;;;4.57;;
20381;SDS011;10350;51.280;12.400;2023-04-24T01:10:14;4.88;;;4.68;;
20381;SDS011;10350;51.280;12.400;2023-04-24T01:12:40;4.63;;;4.43;;
20381;SDS011;10350;51.280;12.400;2023-04-24T01:15:06;4.55;;;4.32;;
20381;SDS011;10350;51.280;12.400;2023-04-24T01:17:32;4.57;;;4.38;;
20381;SDS011;10350;51.280;12.400;2023-04-24T01:19:59;5.07;;;4.85;;
20381;SDS011;10350;51.280;12.400;2023-04-24T01:22:26;4.35;;;4.15;;
20381;SDS011;10350;51.280;12.400;2023-04-24T01:24:52;4.45;;;4.25;;
20381;SDS011;10350;51.280;12.400;2023-04-24T01:27:19;3.97;;;3.78;;
20381;SDS011;10350;51.280;12.400;2023-04-24T01:29:45;4.07;;;3.88;;
20381;SDS011;10350;51.280;12.400;2023-04-24T01:32:14;4.82;;;4.53;;
20381;SDS011;10350;51.280;12.400;2023-04-24T01:34:40;4.32;;;4.13;;
20381;SDS011;10350;51.280;12.400;2023-04-24T01:37:06;4.80;;;4.50;;
20381;SDS011;10350;51.280;12.400;2023-04-24T01:39:32;5.20;;;5.00;;
20381;SDS011;10350;51.280;12.400;2023-04-24T01:41:58;4.30;;;4.10;;
20381;SDS011;10350;51.280;12.400;2023-04-24T01:44:26;4.47;;;4.27;;
20381;SDS011;10350;51.280;12.400;2023-04-24T01:46:52;4.53;;;4.32;;
20381;SDS011;10350;51.280;12.400;2023-04-24T01:49:19;4.18;;;3.88;;
20381;SDS011;10350;51.280;12.400;2023-04-24T01:51:45;4.05;;;3.85;;
20381;SDS011;10350;51.280;12.400;2023-04-24T01:54:11;3.97;;;3.78;;
20381;SDS011;10350;51.280;12.400;2023-04-24T01:56:39;4.25;;;4.05;;
20381;SDS011;10350;51.280;12.400;2023-04-24T01:59:06;4.80;;;4.50;;
20381;SDS011;10350;51.280;12.400;2023-04-24T02:01:36;4.00;;;3.80;;
20381;SDS011;10350;51.280;12.400;2023-04-24T02:04:03;3.55;;;3.45;;
20381;SDS011;10350;51.280;12.400;2023-04-24T02:06:29;3.67;;;3.40;;
20381;SDS011;10350;51.280;12.400;2023-04-24T02:08:56;4.40;;;4.20;;
20381;SDS011;10350;51.280;12.400;2023-04-24T02:11:22;3.78;;;3.58;;
20381;SDS011;10350;51.280;12.400;2023-04-24T02:13:48;3.55;;;3.38;;
20381;SDS011;10350;51.280;12.400;2023-04-24T02:16:15;4.00;;;3.80;;
20381;SDS011;10350;51.280;12.400;2023-04-24T02:18:41;3.90;;;3.70;;
20381;SDS011;10350;51.280;12.400;2023-04-24T02:21:07;4.30;;;4.10;;
20381;SDS011;10350;51.280;12.400;2023-04-24T02:23:33;4.03;;;3.83;;
20381;SDS011;10350;51.280;12.400;2023-04-24T02:25:59;3.85;;;3.65;;
20381;SDS011;10350;51.280;12.400;2023-04-24T02:28:25;4.15;;;3.95;;
20381;SDS011;10350;51.280;12.400;2023-04-24T02:30:51;4.25;;;4.05;;
20381;SDS011;10350;51.280;12.400;2023-04-24T02:33:17;3.50;;;3.30;;
20381;SDS011;10350;51.280;12.400;2023-04-24T02:35:42;3.47;;;3.28;;
20381;SDS011;10350;51.280;12.400;2023-04-24T02:38:08;3.50;;;3.30;;
20381;SDS011;10350;51.280;12.400;2023-04-24T02:40:34;3.55;;;3.42;;
20381;SDS011;10350;51.280;12.400;2023-04-24T02:43:00;6.05;;;2.92;;
20381;SDS011;10350;51.280;12.400;2023-04-24T02:45:26;3.35;;;3.20;;
20381;SDS011;10350;51.280;12.400;2023-04-24T02:47:52;3.20;;;3.00;;
20381;SDS011;10350;51.280;12.400;2023-04-24T02:50:18;3.45;;;3.25;;
20381;SDS011;10350;51.280;12.400;2023-04-24T02:52:44;3.70;;;3.50;;
20381;SDS011;10350;51.280;12.400;2023-04-24T02:55:10;3.20;;;3.00;;
20381;SDS011;10350;51.280;12.400;2023-04-24T02:57:36;2.90;;;2.80;;
20381;SDS011;10350;51.280;12.400;2023-04-24T03:00:02;3.05;;;2.95;;
20381;SDS011;10350;51.280;12.400;2023-04-24T03:02:31;3.20;;;3.10;;
20381;SDS011;10350;51.280;12.400;2023-04-24T03:04:57;3.63;;;3.42;;
20381;SDS011;10350;51.280;12.400;2023-04-24T03:07:22;3.63;;;3.42;;
20381;SDS011;10350;51.280;12.400;2023-04-24T03:09:49;3.20;;;3.10;;
20381;SDS011;10350;51.280;12.400;2023-04-24T03:12:15;3.13;;;3.03;;
20381;SDS011;10350;51.280;12.400;2023-04-24T03:14:42;3.13;;;3.03;;
20381;SDS011;10350;51.280;12.400;2023-04-24T03:17:08;2.83;;;2.72;;
20381;SDS011;10350;51.280;12.400;2023-04-24T03:19:34;2.83;;;2.72;;
20381;SDS011;10350;51.280;12.400;2023-04-24T03:22:03;3.05;;;2.95;;
20381;SDS011;10350;51.280;12.400;2023-04-24T03:24:29;3.45;;;3.35;;
20381;SDS011;10350;51.280;12.400;2023-04-24T03:26:55;2.78;;;2.67;;
20381;SDS011;10350;51.280;12.400;2023-04-24T03:29:21;2.92;;;2.83;;
20381;SDS011;10350;51.280;12.400;2023-04-24T03:31:47;2.75;;;2.65;;
20381;SDS011;10350;51.280;12.400;2023-04-24T03:34:13;3.30;;;3.20;;
20381;SDS011;10350;51.280;12.400;2023-04-24T03:36:39;3.10;;;3.00;;
20381;SDS011;10350;51.280;12.400;2023-04-24T03:39:05;2.80;;;2.67;;
20381;SDS011;10350;51.280;12.400;2023-04-24T03:41:32;2.80;;;2.70;;
20381;SDS011;10350;51.280;12.400;2023-04-24T03:43:58;3.58;;;3.38;;
20381;SDS011;10350;51.280;12.400;2023-04-24T03:46:24;2.78;;;2.67;;
20381;SDS011;10350;51.280;12.400;2023-04-24T03:48:50;3.15;;;3.05;;
20381;SDS011;10350;51.280;12.400;2023-04-24T03:51:16;3.38;;;3.25;;
20381;SDS011;10350;51.280;12.400;2023-04-24T03:53:42;3.40;;;3.30;;
20381;SDS011;10350;51.280;12.400;2023-04-24T03:56:08;3.15;;;3.05;;
20381;SDS011;10350;51.280;12.400;2023-04-24T03:58:34;3.65;;;3.45;;
20381;SDS011;10350;51.280;12.400;2023-04-24T04:01:00;3.00;;;2.90;;
20381;SDS011;10350;51.280;12.400;2023-04-24T04:03:27;3.65;;;3.45;;
20381;SDS011;10350;51.280;12.400;2023-04-24T04:05:53;3.10;;;3.00;;
20381;SDS011;10350;51.280;12.400;2023-04-24T04:08:19;3.65;;;3.45;;
20381;SDS011;10350;51.280;12.400;2023-04-24T04:10:45;2.88;;;2.78;;
20381;SDS011;10350;51.280;12.400;2023-04-24T04:13:11;3.35;;;3.15;;
20381;SDS011;10350;51.280;12.400;2023-04-24T04:15:37;3.03;;;2.85;;
20381;SDS011;10350;51.280;12.400;2023-04-24T04:18:03;2.70;;;2.60;;
20381;SDS011;10350;51.280;12.400;2023-04-24T04:20:29;3.50;;;3.30;;
20381;SDS011;10350;51.280;12.400;2023-04-24T04:22:55;3.53;;;3.33;;
20381;SDS011;10350;51.280;12.400;2023-04-24T04:25:21;3.47;;;3.28;;
20381;SDS011;10350;51.280;12.400;2023-04-24T04:27:48;3.50;;;3.30;;
20381;SDS011;10350;51.280;12.400;2023-04-24T04:30:14;3.20;;;3.10;;
20381;SDS011;10350;51.280;12.400;2023-04-24T04:32:40;3.60;;;3.50;;
20381;SDS011;10350;51.280;12.400;2023-04-24T04:35:06;6.82;;;3.22;;
20381;SDS011;10350;51.280;12.400;2023-04-24T04:37:32;3.30;;;3.20;;
20381;SDS011;10350;51.280;12.400;2023-04-24T04:40:02;3.10;;;3.00;;
20381;SDS011;10350;51.280;12.400;2023-04-24T04:42:31;3.60;;;3.40;;
20381;SDS011;10350;51.280;12.400;2023-04-24T04:44:59;3.22;;;3.10;;
20381;SDS011;10350;51.280;12.400;2023-04-24T04:47:25;3.25;;;3.15;;
20381;SDS011;10350;51.280;12.400;2023-04-24T04:52:22;3.13;;;2.92;;
20381;SDS011;10350;51.280;12.400;2023-04-24T04:54:50;2.90;;;2.80;;
20381;SDS011;10350;51.280;12.400;2023-04-24T04:57:16;3.30;;;3.17;;
20381;SDS011;10350;51.280;12.400;2023-04-24T04:59:42;3.92;;;3.72;;
20381;SDS011;10350;51.280;12.400;2023-04-24T05:02:08;2.65;;;2.55;;
20381;SDS011;10350;51.280;12.400;2023-04-24T05:04:34;3.08;;;2.97;;
20381;SDS011;10350;51.280;12.400;2023-04-24T05:07:00;3.33;;;3.13;;
20381;SDS011;10350;51.280;12.400;2023-04-24T05:09:26;3.55;;;3.35;;
20381;SDS011;10350;51.280;12.400;2023-04-24T05:11:54;3.28;;;3.17;;
20381;SDS011;10350;51.280;12.400;2023-04-24T05:14:20;3.25;;;3.10;;
20381;SDS011;10350;51.280;12.400;2023-04-24T05:16:46;3.42;;;3.22;;
20381;SDS011;10350;51.280;12.400;2023-04-24T05:19:12;3.70;;;3.50;;
20381;SDS011;10350;51.280;12.400;2023-04-24T05:21:39;3.20;;;3.03;;
20381;SDS011;10350;51.280;12.400;2023-04-24T05:24:06;3.60;;;3.40;;
20381;SDS011;10350;51.280;12.400;2023-04-24T05:26:33;3.33;;;3.20;;
20381;SDS011;10350;51.280;12.400;2023-04-24T05:29:00;3.75;;;3.55;;
20381;SDS011;10350;51.280;12.400;2023-04-24T05:31:27;3.92;;;3.72;;
20381;SDS011;10350;51.280;12.400;2023-04-24T05:33:53;4.03;;;3.83;;
20381;SDS011;10350;51.280;12.400;2023-04-24T05:36:19;4.40;;;4.20;;
20381;SDS011;10350;51.280;12.400;2023-04-24T05:38:45;4.38;;;4.18;;
20381;SDS011;10350;51.280;12.400;2023-04-24T05:41:11;4.03;;;3.83;;
20381;SDS011;10350;51.280;12.400;2023-04-24T05:43:37;4.30;;;4.10;;
20381;SDS011;10350;51.280;12.400;2023-04-24T05:46:03;4.45;;;4.25;;
20381;SDS011;10350;51.280;12.400;2023-04-24T05:48:29;4.20;;;3.95;;
20381;SDS011;10350;51.280;12.400;2023-04-24T05:50:55;3.85;;;3.65;;
20381;SDS011;10350;51.280;12.400;2023-04-24T05:53:21;4.28;;;4.07;;
20381;SDS011;10350;51.280;12.400;2023-04-24T05:55:47;4.32;;;4.13;;
20381;SDS011;10350;51.280;12.400;2023-04-24T05:58:13;4.28;;;4.07;;
20381;SDS011;10350;51.280;12.400;2023-04-24T06:00:40;3.95;;;3.78;;
20381;SDS011;10350;51.280;12.400;2023-04-24T06:03:07;4.22;;;4.03;;
20381;SDS011;10350;51.280;12.400;2023-04-24T06:05:33;4.55;;;4.22;;
20381;SDS011;10350;51.280;12.400;2023-04-24T06:08:00;4.85;;;4.65;;
20381;SDS011;10350;51.280;12.400;2023-04-24T06:10:26;4.65;;;4.45;;
20381;SDS011;10350;51.280;12.400;2023-04-24T06:12:52;4.30;;;4.10;;
20381;SDS011;10350;51.280;12.400;2023-04-24T06:15:21;5.03;;;4.82;;
20381;SDS011;10350;51.280;12.400;2023-04-24T06:17:47;4.90;;;4.70;;
20381;SDS011;10350;51.280;12.400;2023-04-24T06:20:13;5.13;;;4.80;;
20381;SDS011;10350;51.280;12.400;2023-04-24T06:22:39;4.95;;;4.75;;
20381;SDS011;10350;51.280;12.400;2023-04-24T06:25:05;4.30;;;4.10;;
20381;SDS011;10350;51.280;12.400;2023-04-24T06:27:32;3.90;;;3.70;;
20381;SDS011;10350;51.280;12.400;2023-04-24T06:29:58;3.88;;;3.60;;
20381;SDS011;10350;51.280;12.400;2023-04-24T06:32:24;3.63;;;3.50;;
20381;SDS011;10350;51.280;12.400;2023-04-24T06:34:51;3.58;;;3.10;;
20381;SDS011;10350;51.280;12.400;2023-04-24T06:37:18;3.65;;;3.50;;
20381;SDS011;10350;51.280;12.400;2023-04-24T06:39:44;3.60;;;3.50;;
20381;SDS011;10350;51.280;12.400;2023-04-24T06:42:10;3.45;;;3.35;;
20381;SDS011;10350;51.280;12.400;2023-04-24T06:44:36;2.70;;;2.60;;
20381;SDS011;10350;51.280;12.400;2023-04-24T06:47:06;2.97;;;2.88;;
20381;SDS011;10350;51.280;12.400;2023-04-24T06:49:32;3.25;;;3.15;;
20381;SDS011;10350;51.280;12.400;2023-04-24T06:51:58;2.95;;;2.85;;
20381;SDS011;10350;51.280;12.400;2023-04-24T06:54:24;3.67;;;3.47;;
20381;SDS011;10350;51.280;12.400;2023-04-24T06:56:50;3.58;;;3.38;;
20381;SDS011;10350;51.280;12.400;2023-04-24T06:59:17;3.30;;;3.10;;
20381;SDS011;10350;51.280;12.400;2023-04-24T07:01:43;3.40;;;3.20;;
20381;SDS011;10350;51.280;12.400;2023-04-24T07:04:09;3.47;;;3.28;;
20381;SDS011;10350;51.280;12.400;2023-04-24T07:06:35;5.10;;;4.15;;
20381;SDS011;10350;51.280;12.400;2023-04-24T07:09:02;3.22;;;3.08;;
20381;SDS011;10350;51.280;12.400;2023-04-24T07:11:28;4.25;;;3.95;;
20381;SDS011;10350;51.280;12.400;2023-04-24T07:13:54;4.28;;;4.07;;
20381;SDS011;10350;51.280;12.400;2023-04-24T07:16:21;3.60;;;3.50;;
20381;SDS011;10350;51.280;12.400;2023-04-24T07:18:47;4.13;;;3.83;;
20381;SDS011;10350;51.280;12.400;2023-04-24T07:21:13;5.13;;;4.93;;
20381;SDS011;10350;51.280;12.400;2023-04-24T07:23:38;12.20;;;5.60;;
20381;SDS011;10350;51.280;12.400;2023-04-24T07:26:06;5.20;;;4.93;;
20381;SDS011;10350;51.280;12.400;2023-04-24T07:28:32;4.80;;;4.60;;
20381;SDS011;10350;51.280;12.400;2023-04-24T07:30:58;4.43;;;4.22;;
20381;SDS011;10350;51.280;12.400;2023-04-24T07:33:24;3.53;;;3.22;;
20381;SDS011;10350;51.280;12.400;2023-04-24T07:35:50;3.28;;;3.17;;
20381;SDS011;10350;51.280;12.400;2023-04-24T07:38:18;3.35;;;3.25;;
20381;SDS011;10350;51.280;12.400;2023-04-24T07:40:47;3.65;;;3.47;;
20381;SDS011;10350;51.280;12.400;2023-04-24T07:43:12;3.38;;;3.28;;
20381;SDS011;10350;51.280;12.400;2023-04-24T07:45:39;3.63;;;3.33;;
20381;SDS011;10350;51.280;12.400;2023-04-24T07:48:05;4.18;;;3.97;;
20381;SDS011;10350;51.280;12.400;2023-04-24T07:50:31;3.70;;;3.50;;
20381;SDS011;10350;51.280;12.400;2023-04-24T07:52:57;3.47;;;3.17;;
20381;SDS011;10350;51.280;12.400;2023-04-24T07:55:23;4.03;;;3.80;;
20381;SDS011;10350;51.280;12.400;2023-04-24T07:57:49;3.58;;;3.45;;
20381;SDS011;10350;51.280;12.400;2023-04-24T08:00:15;4.43;;;3.80;;
20381;SDS011;10350;51.280;12.400;2023-04-24T08:02:41;3.60;;;3.40;;
20381;SDS011;10350;51.280;12.400;2023-04-24T08:05:07;3.97;;;3.78;;
20381;SDS011;10350;51.280;12.400;2023-04-24T08:07:33;3.97;;;3.80;;
20381;SDS011;10350;51.280;12.400;2023-04-24T08:10:00;4.35;;;4.15;;
20381;SDS011;10350;51.280;12.400;2023-04-24T08:12:28;4.30;;;4.10;;
20381;SDS011;10350;51.280;12.400;2023-04-24T08:14:54;4.63;;;4.43;;
20381;SDS011;10350;51.280;12.400;2023-04-24T08:17:20;4.47;;;4.28;;
20381;SDS011;10350;51.280;12.400;2023-04-24T08:19:46;4.05;;;3.85;;
20381;SDS011;10350;51.280;12.400;2023-04-24T08:22:16;4.10;;;3.90;;
20381;SDS011;10350;51.280;12.400;2023-04-24T08:24:42;4.57;;;4.38;;
20381;SDS011;10350;51.280;12.400;2023-04-24T08:27:08;4.05;;;3.85;;
20381;SDS011;10350;51.280;12.400;2023-04-24T08:29:35;3.83;;;3.70;;
20381;SDS011;10350;51.280;12.400;2023-04-24T08:32:01;3.47;;;3.38;;
20381;SDS011;10350;51.280;12.400;2023-04-24T08:34:27;3.90;;;3.70;;
20381;SDS011;10350;51.280;12.400;2023-04-24T08:36:53;3.83;;;3.70;;
20381;SDS011;10350;51.280;12.400;2023-04-24T08:39:19;4.25;;;4.05;;
20381;SDS011;10350;51.280;12.400;2023-04-24T08:41:45;4.28;;;4.07;;
20381;SDS011;10350;51.280;12.400;2023-04-24T08:44:13;4.20;;;4.00;;
20381;SDS011;10350;51.280;12.400;2023-04-24T08:46:41;3.65;;;3.53;;
20381;SDS011;10350;51.280;12.400;2023-04-24T08:49:08;3.13;;;3.03;;
20381;SDS011;10350;51.280;12.400;2023-04-24T08:51:34;3.17;;;3.08;;
20381;SDS011;10350;51.280;12.400;2023-04-24T08:54:02;3.00;;;2.90;;
20381;SDS011;10350;51.280;12.400;2023-04-24T08:56:29;3.42;;;3.33;;
20381;SDS011;10350;51.280;12.400;2023-04-24T08:58:55;3.47;;;3.38;;
20381;SDS011;10350;51.280;12.400;2023-04-24T09:01:22;3.40;;;3.30;;
20381;SDS011;10350;51.280;12.400;2023-04-24T09:03:49;4.13;;;3.92;;
20381;SDS011;10350;51.280;12.400;2023-04-24T09:06:16;4.03;;;3.83;;
20381;SDS011;10350;51.280;12.400;2023-04-24T09:08:43;3.97;;;3.47;;
20381;SDS011;10350;51.280;12.400;2023-04-24T09:11:09;3.10;;;3.00;;
20381;SDS011;10350;51.280;12.400;2023-04-24T09:13:35;3.33;;;3.22;;
20381;SDS011;10350;51.280;12.400;2023-04-24T09:16:02;3.60;;;3.50;;
20381;SDS011;10350;51.280;12.400;2023-04-24T09:18:28;2.97;;;2.88;;
20381;SDS011;10350;51.280;12.400;2023-04-24T09:21:12;3.85;;;3.70;;
20381;SDS011;10350;51.280;12.400;2023-04-24T09:23:38;3.33;;;3.22;;
20381;SDS011;10350;51.280;12.400;2023-04-24T09:26:04;3.40;;;3.20;;
20381;SDS011;10350;51.280;12.400;2023-04-24T09:28:32;3.30;;;3.20;;
20381;SDS011;10350;51.280;12.400;2023-04-24T09:33:30;3.58;;;3.38;;
20381;SDS011;10350;51.280;12.400;2023-04-24T09:35:56;3.35;;;3.25;;
20381;SDS011;10350;51.280;12.400;2023-04-24T09:38:30;3.83;;;3.58;;
20381;SDS011;10350;51.280;12.400;2023-04-24T09:40:58;2.95;;;2.85;;
20381;SDS011;10350;51.280;12.400;2023-04-24T09:43:26;2.90;;;2.80;;
20381;SDS011;10350;51.280;12.400;2023-04-24T09:45:53;3.47;;;3.38;;
20381;SDS011;10350;51.280;12.400;2023-04-24T09:48:29;3.40;;;3.20;;
20381;SDS011;10350;51.280;12.400;2023-04-24T09:50:55;3.25;;;3.15;;
20381;SDS011;10350;51.280;12.400;2023-04-24T09:53:23;3.15;;;3.05;;
20381;SDS011;10350;51.280;12.400;2023-04-24T09:55:50;3.45;;;3.25;;
20381;SDS011;10350;51.280;12.400;2023-04-24T09:58:17;4.13;;;3.92;;
20381;SDS011;10350;51.280;12.400;2023-04-24T10:00:43;3.28;;;3.17;;
20381;SDS011;10350;51.280;12.400;2023-04-24T10:03:11;3.00;;;2.90;;
20381;SDS011;10350;51.280;12.400;2023-04-24T10:05:37;3.70;;;3.50;;
20381;SDS011;10350;51.280;12.400;2023-04-24T10:08:05;3.85;;;3.67;;
20381;SDS011;10350;51.280;12.400;2023-04-24T10:10:31;3.40;;;3.25;;
20381;SDS011;10350;51.280;12.400;2023-04-24T10:12:59;3.30;;;3.17;;
20381;SDS011;10350;51.280;12.400;2023-04-24T10:15:25;3.25;;;3.15;;
20381;SDS011;10350;51.280;12.400;2023-04-24T10:17:52;3.35;;;3.22;;
20381;SDS011;10350;51.280;12.400;2023-04-24T10:20:22;3.63;;;3.50;;
20381;SDS011;10350;51.280;12.400;2023-04-24T10:22:49;3.45;;;3.30;;
20381;SDS011;10350;51.280;12.400;2023-04-24T10:25:19;3.03;;;2.80;;
20381;SDS011;10350;51.280;12.400;2023-04-24T10:27:46;2.80;;;2.70;;
20381;SDS011;10350;51.280;12.400;2023-04-24T10:30:12;3.15;;;2.95;;
20381;SDS011;10350;51.280;12.400;2023-04-24T10:32:39;3.15;;;3.05;;
20381;SDS011;10350;51.280;12.400;2023-04-24T10:35:08;3.70;;;3.40;;
20381;SDS011;10350;51.280;12.400;2023-04-24T10:37:40;3.53;;;3.38;;
20381;SDS011;10350;51.280;12.400;2023-04-24T10:40:07;4.15;;;3.95;;
20381;SDS011;10350;51.280;12.400;2023-04-24T10:42:34;3.30;;;3.20;;
20381;SDS011;10350;51.280;12.400;2023-04-24T10:45:22;3.42;;;3.28;;
20381;SDS011;10350;51.280;12.400;2023-04-24T10:47:54;4.35;;;3.33;;
20381;SDS011;10350;51.280;12.400;2023-04-24T10:50:22;4.35;;;3.70;;
20381;SDS011;10350;51.280;12.400;2023-04-24T10:52:48;3.38;;;3.28;;
20381;SDS011;10350;51.280;12.400;2023-04-24T10:58:04;2.88;;;2.78;;
20381;SDS011;10350;51.280;12.400;2023-04-24T11:00:30;3.22;;;3.13;;
20381;SDS011;10350;51.280;12.400;2023-04-24T11:02:56;7.88;;;3.42;;
20381;SDS011;10350;51.280;12.400;2023-04-24T11:05:29;3.40;;;3.22;;
20381;SDS011;10350;51.280;12.400;2023-04-24T11:10:39;3.22;;;3.13;;
20381;SDS011;10350;51.280;12.400;2023-04-24T11:13:05;3.17;;;3.08;;
20381;SDS011;10350;51.280;12.400;2023-04-24T11:15:32;3.58;;;3.38;;
20381;SDS011;10350;51.280;12.400;2023-04-24T11:17:58;3.08;;;2.97;;
20381;SDS011;10350;51.280;12.400;2023-04-24T11:20:25;3.90;;;3.70;;
20381;SDS011;10350;51.280;12.400;2023-04-24T11:22:52;2.90;;;2.80;;
20381;SDS011;10350;51.280;12.400;2023-04-24T11:27:46;3.95;;;3.75;;
20381;SDS011;10350;51.280;12.400;2023-04-24T11:30:16;3.00;;;2.90;;
20381;SDS011;10350;51.280;12.400;2023-04-24T11:32:43;3.00;;;2.90;;
20381;SDS011;10350;51.280;12.400;2023-04-24T11:35:13;3.03;;;2.92;;
20381;SDS011;10350;51.280;12.400;2023-04-24T11:37:43;3.33;;;3.22;;
20381;SDS011;10350;51.280;12.400;2023-04-24T11:40:14;3.47;;;3.28;;
20381;SDS011;10350;51.280;12.400;2023-04-24T11:42:41;3.00;;;2.90;;
20381;SDS011;10350;51.280;12.400;2023-04-24T11:45:09;3.20;;;3.08;;
20381;SDS011;10350;51.280;12.400;2023-04-24T11:47:35;3.17;;;3.08;;
20381;SDS011;10350;51.280;12.400;2023-04-24T11:50:02;2.80;;;2.70;;
20381;SDS011;10350;51.280;12.400;2023-04-24T11:52:29;10.77;;;4.40;;
20381;SDS011;10350;51.280;12.400;2023-04-24T11:54:55;3.83;;;3.63;;
20381;SDS011;10350;51.280;12.400;2023-04-24T11:57:21;3.13;;;3.00;;
20381;SDS011;10350;51.280;12.400;2023-04-24T11:59:48;3.35;;;3.17;;
20381;SDS011;10350;51.280;12.400;2023-04-24T12:02:20;2.97;;;2.88;;
20381;SDS011;10350;51.280;12.400;2023-04-24T12:04:46;3.35;;;3.17;;
20381;SDS011;10350;51.280;12.400;2023-04-24T12:07:12;2.97;;;2.85;;
20381;SDS011;10350;51.280;12.400;2023-04-24T12:12:07;3.05;;;2.95;;
20381;SDS011;10350;51.280;12.400;2023-04-24T12:14:41;3.22;;;3.13;;
20381;SDS011;10350;51.280;12.400;2023-04-24T12:17:07;3.28;;;3.15;;
20381;SDS011;10350;51.280;12.400;2023-04-24T12:19:33;3.10;;;3.00;;
20381;SDS011;10350;51.280;12.400;2023-04-24T12:22:03;4.18;;;3.00;;
20381;SDS011;10350;51.280;12.400;2023-04-24T12:24:30;3.13;;;2.97;;
20381;SDS011;10350;51.280;12.400;2023-04-24T12:26:56;2.78;;;2.67;;
20381;SDS011;10350;51.280;12.400;2023-04-24T12:29:23;3.28;;;3.13;;
20381;SDS011;10350;51.280;12.400;2023-04-24T12:31:49;3.10;;;3.00;;
20381;SDS011;10350;51.280;12.400;2023-04-24T12:34:22;3.17;;;3.00;;
20381;SDS011;10350;51.280;12.400;2023-04-24T12:36:48;3.00;;;2.90;;
20381;SDS011;10350;51.280;12.400;2023-04-24T12:39:18;3.35;;;3.17;;
20381;SDS011;10350;51.280;12.400;2023-04-24T12:42:25;3.47;;;3.38;;
20381;SDS011;10350;51.280;12.400;2023-04-24T12:44:37;3.67;;;3.50;;
20381;SDS011;10350;51.280;12.400;2023-04-24T12:47:03;3.80;;;3.63;;
20381;SDS011;10350;51.280;12.400;2023-04-24T12:49:29;3.83;;;3.63;;
20381;SDS011;10350;51.280;12.400;2023-04-24T12:51:56;3.72;;;3.53;;
20381;SDS011;10350;51.280;12.400;2023-04-24T12:54:22;3.30;;;3.20;;
20381;SDS011;10350;51.280;12.400;2023-04-24T12:56:48;3.90;;;3.72;;
20381;SDS011;10350;51.280;12.400;2023-04-24T12:59:14;3.33;;;3.22;;
20381;SDS011;10350;51.280;12.400;2023-04-24T13:01:40;3.25;;;3.05;;
20381;SDS011;10350;51.280;12.400;2023-04-24T13:04:06;3.55;;;3.25;;
20381;SDS011;10350;51.280;12.400;2023-04-24T13:06:32;3.55;;;3.35;;
20381;SDS011;10350;51.280;12.400;2023-04-24T13:08:59;3.20;;;3.00;;
20381;SDS011;10350;51.280;12.400;2023-04-24T13:11:25;3.42;;;3.22;;
20381;SDS011;10350;51.280;12.400;2023-04-24T13:13:51;3.42;;;3.33;;
20381;SDS011;10350;51.280;12.400;2023-04-24T13:16:17;3.10;;;3.00;;
20381;SDS011;10350;51.280;12.400;2023-04-24T13:18:43;3.30;;;3.15;;
20381;SDS011;10350;51.280;12.400;2023-04-24T13:21:09;3.20;;;3.10;;
20381;SDS011;10350;51.280;12.400;2023-04-24T13:23:35;3.42;;;3.33;;
20381;SDS011;10350;51.280;12.400;2023-04-24T13:26:01;3.50;;;3.40;;
20381;SDS011;10350;51.280;12.400;2023-04-24T13:28:27;4.32;;;4.03;;
20381;SDS011;10350;51.280;12.400;2023-04-24T13:30:54;4.05;;;3.85;;
20381;SDS011;10350;51.280;12.400;2023-04-24T13:33:20;3.72;;;3.63;;
20381;SDS011;10350;51.280;12.400;2023-04-24T13:35:46;4.05;;;3.85;;
20381;SDS011;10350;51.280;12.400;2023-04-24T13:38:12;4.28;;;4.07;;
20381;SDS011;10350;51.280;12.400;2023-04-24T13:40:38;4.43;;;4.22;;
20381;SDS011;10350;51.280;12.400;2023-04-24T13:43:04;3.65;;;3.35;;
20381;SDS011;10350;51.280;12.400;2023-04-24T13:45:30;4.28;;;3.97;;
20381;SDS011;10350;51.280;12.400;2023-04-24T13:47:56;3.75;;;3.65;;
20381;SDS011;10350;51.280;12.400;2023-04-24T13:50:22;3.05;;;2.95;;
20381;SDS011;10350;51.280;12.400;2023-04-24T13:52:48;3.22;;;3.13;;
20381;SDS011;10350;51.280;12.400;2023-04-24T13:55:14;3.75;;;3.58;;
20381;SDS011;10350;51.280;12.400;2023-04-24T13:57:40;3.45;;;3.33;;
20381;SDS011;10350;51.280;12.400;2023-04-24T14:00:09;3.33;;;3.22;;
20381;SDS011;10350;51.280;12.400;2023-04-24T14:02:35;3.30;;;3.10;;
20381;SDS011;10350;51.280;12.400;2023-04-24T14:05:01;3.00;;;2.90;;
20381;SDS011;10350;51.280;12.400;2023-04-24T14:07:28;3.28;;;3.17;;
20381;SDS011;10350;51.280;12.400;2023-04-24T14:09:54;2.85;;;2.70;;
20381;SDS011;10350;51.280;12.400;2023-04-24T14:12:20;2.80;;;2.67;;
20381;SDS011;10350;51.280;12.400;2023-04-24T14:14:46;2.75;;;2.65;;
20381;SDS011;10350;51.280;12.400;2023-04-24T14:17:15;3.40;;;3.25;;
20381;SDS011;10350;51.280;12.400;2023-04-24T14:19:41;2.60;;;2.50;;
20381;SDS011;10350;51.280;12.400;2023-04-24T14:22:07;2.80;;;2.70;;
20381;SDS011;10350;51.280;12.400;2023-04-24T14:24:33;2.67;;;2.58;;
20381;SDS011;10350;51.280;12.400;2023-04-24T14:26:59;2.75;;;2.65;;
20381;SDS011;10350;51.280;12.400;2023-04-24T14:29:26;2.78;;;2.67;;
20381;SDS011;10350;51.280;12.400;2023-04-24T14:31:52;3.05;;;2.85;;
20381;SDS011;10350;51.280;12.400;2023-04-24T14:34:18;3.38;;;3.22;;
20381;SDS011;10350;51.280;12.400;2023-04-24T14:36:44;3.58;;;3.45;;
20381;SDS011;10350;51.280;12.400;2023-04-24T14:39:13;3.22;;;3.13;;
20381;SDS011;10350;51.280;12.400;2023-04-24T14:41:40;3.03;;;2.88;;
20381;SDS011;10350;51.280;12.400;2023-04-24T14:44:06;2.65;;;2.55;;
20381;SDS011;10350;51.280;12.400;2023-04-24T14:46:32;2.67;;;2.58;;